Bradshaw, Nebraska
Current Conditions -  °F | °C
As of 2:35 PM on Monday 26 Jan 2015 (Local Time) from KJYR Reporting Station
Clear Clear  
Wind Chill: 63°   Ceiling: Unl
Heat Index: 63°   Visibility: 10mi
Dew Point: 30°   Wind: 15mph
Humidity: 30%   Direction: 340°NNW
Pressure: 29.97"   Gusts: 24mph
Location:  40.88°N, 97.75°W
Report Text: KJYR 262035Z AUTO 34013G21KT 10SM CLR 17/M01 A2997 RMK AO2
Loading
Personal Weather Stations






























Interactive Weather Map New forecast layout! Learn more

10-Day Weather Forecast

Advertisements
Track Severe Weather on mobile